sensor_id;sensor_type;location;lat;lon;timestamp;P1;durP1;ratioP1;P2;durP2;ratioP2
69979;SDS011;57318;56.232;43.944;2022-08-19T00:01:20;36.15;;;17.60;;
69979;SDS011;57318;56.232;43.944;2022-08-19T00:03:47;30.33;;;16.75;;
69979;SDS011;57318;56.232;43.944;2022-08-19T00:06:13;33.75;;;16.00;;
69979;SDS011;57318;56.232;43.944;2022-08-19T00:08:39;25.38;;;15.23;;
69979;SDS011;57318;56.232;43.944;2022-08-19T00:11:05;27.88;;;14.40;;
69979;SDS011;57318;56.232;43.944;2022-08-19T00:13:33;27.73;;;15.40;;
69979;SDS011;57318;56.232;43.944;2022-08-19T00:15:59;30.98;;;15.45;;
69979;SDS011;57318;56.232;43.944;2022-08-19T00:18:25;30.75;;;15.65;;
69979;SDS011;57318;56.232;43.944;2022-08-19T00:20:51;28.75;;;15.80;;
69979;SDS011;57318;56.232;43.944;2022-08-19T00:23:17;35.28;;;16.48;;
69979;SDS011;57318;56.232;43.944;2022-08-19T00:25:44;35.38;;;16.95;;
69979;SDS011;57318;56.232;43.944;2022-08-19T00:28:09;34.38;;;17.75;;
69979;SDS011;57318;56.232;43.944;2022-08-19T00:30:35;31.03;;;17.00;;
69979;SDS011;57318;56.232;43.944;2022-08-19T00:33:02;35.75;;;19.70;;
69979;SDS011;57318;56.232;43.944;2022-08-19T00:35:28;34.97;;;18.83;;
69979;SDS011;57318;56.232;43.944;2022-08-19T00:37:54;38.50;;;20.93;;
69979;SDS011;57318;56.232;43.944;2022-08-19T00:40:20;39.53;;;21.77;;
69979;SDS011;57318;56.232;43.944;2022-08-19T00:42:46;42.47;;;21.85;;
69979;SDS011;57318;56.232;43.944;2022-08-19T00:45:13;37.27;;;22.80;;
69979;SDS011;57318;56.232;43.944;2022-08-19T00:47:43;45.28;;;23.40;;
69979;SDS011;57318;56.232;43.944;2022-08-19T00:50:10;46.17;;;25.13;;
69979;SDS011;57318;56.232;43.944;2022-08-19T00:52:39;47.33;;;26.23;;
69979;SDS011;57318;56.232;43.944;2022-08-19T00:55:10;55.55;;;26.73;;
69979;SDS011;57318;56.232;43.944;2022-08-19T00:57:41;55.88;;;29.30;;
69979;SDS011;57318;56.232;43.944;2022-08-19T01:00:14;54.47;;;29.08;;
69979;SDS011;57318;56.232;43.944;2022-08-19T01:02:43;63.00;;;32.72;;
69979;SDS011;57318;56.232;43.944;2022-08-19T01:05:11;65.82;;;34.65;;
69979;SDS011;57318;56.232;43.944;2022-08-19T01:07:41;78.53;;;38.67;;
69979;SDS011;57318;56.232;43.944;2022-08-19T01:10:09;75.68;;;38.13;;
69979;SDS011;57318;56.232;43.944;2022-08-19T01:12:38;74.80;;;41.25;;
69979;SDS011;57318;56.232;43.944;2022-08-19T01:15:08;78.10;;;42.47;;
69979;SDS011;57318;56.232;43.944;2022-08-19T01:17:36;84.03;;;42.28;;
69979;SDS011;57318;56.232;43.944;2022-08-19T01:20:04;80.28;;;42.00;;
69979;SDS011;57318;56.232;43.944;2022-08-19T01:22:46;84.90;;;42.92;;
69979;SDS011;57318;56.232;43.944;2022-08-19T01:25:15;83.78;;;44.42;;
69979;SDS011;57318;56.232;43.944;2022-08-19T01:27:45;92.82;;;45.38;;
69979;SDS011;57318;56.232;43.944;2022-08-19T01:30:15;92.32;;;46.30;;
69979;SDS011;57318;56.232;43.944;2022-08-19T01:32:53;88.75;;;47.10;;
69979;SDS011;57318;56.232;43.944;2022-08-19T01:35:20;92.05;;;48.20;;
69979;SDS011;57318;56.232;43.944;2022-08-19T01:37:55;96.18;;;48.95;;
69979;SDS011;57318;56.232;43.944;2022-08-19T01:40:25;99.45;;;50.47;;
69979;SDS011;57318;56.232;43.944;2022-08-19T01:42:54;96.88;;;49.13;;
69979;SDS011;57318;56.232;43.944;2022-08-19T01:45:21;98.00;;;49.78;;
69979;SDS011;57318;56.232;43.944;2022-08-19T01:47:49;98.13;;;49.47;;
69979;SDS011;57318;56.232;43.944;2022-08-19T01:50:17;107.25;;;51.08;;
69979;SDS011;57318;56.232;43.944;2022-08-19T01:52:43;94.07;;;48.43;;
69979;SDS011;57318;56.232;43.944;2022-08-19T02:00:05;96.50;;;49.97;;
69979;SDS011;57318;56.232;43.944;2022-08-19T02:02:33;103.88;;;51.75;;
69979;SDS011;57318;56.232;43.944;2022-08-19T02:04:59;104.70;;;52.10;;
69979;SDS011;57318;56.232;43.944;2022-08-19T02:07:25;101.10;;;52.57;;
69979;SDS011;57318;56.232;43.944;2022-08-19T02:09:50;101.53;;;53.97;;
69979;SDS011;57318;56.232;43.944;2022-08-19T02:12:16;113.63;;;56.33;;
69979;SDS011;57318;56.232;43.944;2022-08-19T02:14:42;106.73;;;56.57;;
69979;SDS011;57318;56.232;43.944;2022-08-19T02:17:07;106.97;;;55.53;;
69979;SDS011;57318;56.232;43.944;2022-08-19T02:19:33;112.17;;;56.00;;
69979;SDS011;57318;56.232;43.944;2022-08-19T02:21:59;105.77;;;56.33;;
69979;SDS011;57318;56.232;43.944;2022-08-19T02:24:25;109.47;;;54.85;;
69979;SDS011;57318;56.232;43.944;2022-08-19T02:26:52;113.00;;;58.28;;
69979;SDS011;57318;56.232;43.944;2022-08-19T02:29:18;102.47;;;56.33;;
69979;SDS011;57318;56.232;43.944;2022-08-19T02:31:43;110.67;;;56.03;;
69979;SDS011;57318;56.232;43.944;2022-08-19T02:34:09;109.70;;;56.07;;
69979;SDS011;57318;56.232;43.944;2022-08-19T02:36:35;111.03;;;57.63;;
69979;SDS011;57318;56.232;43.944;2022-08-19T02:39:00;106.03;;;57.20;;
69979;SDS011;57318;56.232;43.944;2022-08-19T02:41:27;109.73;;;57.40;;
69979;SDS011;57318;56.232;43.944;2022-08-19T02:43:56;110.70;;;57.88;;
69979;SDS011;57318;56.232;43.944;2022-08-19T02:46:24;111.65;;;58.47;;
69979;SDS011;57318;56.232;43.944;2022-08-19T02:48:53;112.80;;;57.88;;
69979;SDS011;57318;56.232;43.944;2022-08-19T02:51:22;110.53;;;59.08;;
69979;SDS011;57318;56.232;43.944;2022-08-19T02:53:55;118.20;;;58.42;;
69979;SDS011;57318;56.232;43.944;2022-08-19T02:56:22;110.78;;;57.78;;
69979;SDS011;57318;56.232;43.944;2022-08-19T02:58:47;109.00;;;57.43;;
69979;SDS011;57318;56.232;43.944;2022-08-19T03:01:27;111.13;;;57.83;;
69979;SDS011;57318;56.232;43.944;2022-08-19T03:03:58;112.72;;;58.05;;
69979;SDS011;57318;56.232;43.944;2022-08-19T03:06:26;110.55;;;58.45;;
69979;SDS011;57318;56.232;43.944;2022-08-19T03:08:52;109.15;;;56.60;;
69979;SDS011;57318;56.232;43.944;2022-08-19T03:11:21;107.53;;;56.65;;
69979;SDS011;57318;56.232;43.944;2022-08-19T03:13:51;112.35;;;55.30;;
69979;SDS011;57318;56.232;43.944;2022-08-19T03:16:18;105.60;;;54.60;;
69979;SDS011;57318;56.232;43.944;2022-08-19T03:18:48;107.00;;;56.60;;
69979;SDS011;57318;56.232;43.944;2022-08-19T03:21:19;105.65;;;55.45;;
69979;SDS011;57318;56.232;43.944;2022-08-19T03:23:46;111.47;;;57.03;;
69979;SDS011;57318;56.232;43.944;2022-08-19T03:26:12;101.28;;;52.88;;
69979;SDS011;57318;56.232;43.944;2022-08-19T03:28:40;104.85;;;54.50;;
69979;SDS011;57318;56.232;43.944;2022-08-19T03:31:07;96.28;;;51.30;;
69979;SDS011;57318;56.232;43.944;2022-08-19T03:33:37;103.50;;;55.13;;
69979;SDS011;57318;56.232;43.944;2022-08-19T03:36:07;97.15;;;53.75;;
69979;SDS011;57318;56.232;43.944;2022-08-19T03:38:36;118.65;;;60.97;;
69979;SDS011;57318;56.232;43.944;2022-08-19T03:41:05;106.55;;;52.17;;
69979;SDS011;57318;56.232;43.944;2022-08-19T03:43:36;101.22;;;53.22;;
69979;SDS011;57318;56.232;43.944;2022-08-19T03:46:04;99.03;;;51.97;;
69979;SDS011;57318;56.232;43.944;2022-08-19T03:48:33;99.82;;;52.15;;
69979;SDS011;57318;56.232;43.944;2022-08-19T03:50:59;94.55;;;50.80;;
69979;SDS011;57318;56.232;43.944;2022-08-19T03:53:29;97.47;;;50.47;;
69979;SDS011;57318;56.232;43.944;2022-08-19T03:55:56;96.05;;;50.72;;
69979;SDS011;57318;56.232;43.944;2022-08-19T03:58:25;95.45;;;47.60;;
69979;SDS011;57318;56.232;43.944;2022-08-19T04:00:54;90.88;;;47.05;;
69979;SDS011;57318;56.232;43.944;2022-08-19T04:03:23;93.85;;;47.70;;
69979;SDS011;57318;56.232;43.944;2022-08-19T04:05:51;86.10;;;46.50;;
69979;SDS011;57318;56.232;43.944;2022-08-19T04:08:17;82.03;;;42.10;;
69979;SDS011;57318;56.232;43.944;2022-08-19T04:10:46;85.97;;;43.90;;
69979;SDS011;57318;56.232;43.944;2022-08-19T04:13:13;81.25;;;41.15;;
69979;SDS011;57318;56.232;43.944;2022-08-19T04:15:41;85.53;;;42.17;;
69979;SDS011;57318;56.232;43.944;2022-08-19T04:18:10;81.57;;;43.53;;
69979;SDS011;57318;56.232;43.944;2022-08-19T04:20:40;76.20;;;39.00;;
69979;SDS011;57318;56.232;43.944;2022-08-19T04:23:11;78.90;;;40.55;;
69979;SDS011;57318;56.232;43.944;2022-08-19T04:25:42;84.18;;;39.70;;
69979;SDS011;57318;56.232;43.944;2022-08-19T04:28:09;80.80;;;40.97;;
69979;SDS011;57318;56.232;43.944;2022-08-19T04:30:41;72.38;;;37.50;;
69979;SDS011;57318;56.232;43.944;2022-08-19T04:33:08;74.38;;;38.10;;
69979;SDS011;57318;56.232;43.944;2022-08-19T04:38:01;62.00;;;34.03;;
69979;SDS011;57318;56.232;43.944;2022-08-19T04:40:27;65.67;;;34.50;;
69979;SDS011;57318;56.232;43.944;2022-08-19T04:43:11;68.15;;;34.10;;
69979;SDS011;57318;56.232;43.944;2022-08-19T04:45:39;63.13;;;34.88;;
69979;SDS011;57318;56.232;43.944;2022-08-19T04:48:05;63.53;;;34.33;;
69979;SDS011;57318;56.232;43.944;2022-08-19T04:50:31;62.73;;;32.17;;
69979;SDS011;57318;56.232;43.944;2022-08-19T04:52:56;57.87;;;31.77;;
69979;SDS011;57318;56.232;43.944;2022-08-19T04:55:22;58.00;;;32.63;;
69979;SDS011;57318;56.232;43.944;2022-08-19T04:57:50;62.70;;;32.45;;
69979;SDS011;57318;56.232;43.944;2022-08-19T05:00:16;62.78;;;31.23;;
69979;SDS011;57318;56.232;43.944;2022-08-19T05:02:42;60.30;;;30.60;;
69979;SDS011;57318;56.232;43.944;2022-08-19T05:05:08;59.95;;;30.80;;
69979;SDS011;57318;56.232;43.944;2022-08-19T05:07:34;60.83;;;30.75;;
69979;SDS011;57318;56.232;43.944;2022-08-19T05:10:00;63.22;;;29.17;;
69979;SDS011;57318;56.232;43.944;2022-08-19T05:12:26;59.53;;;32.47;;
69979;SDS011;57318;56.232;43.944;2022-08-19T05:14:53;61.13;;;30.42;;
69979;SDS011;57318;56.232;43.944;2022-08-19T05:17:19;57.67;;;30.07;;
69979;SDS011;57318;56.232;43.944;2022-08-19T05:19:45;67.67;;;32.87;;
69979;SDS011;57318;56.232;43.944;2022-08-19T05:22:29;57.95;;;30.13;;
69979;SDS011;57318;56.232;43.944;2022-08-19T05:25:07;59.30;;;32.05;;
69979;SDS011;57318;56.232;43.944;2022-08-19T05:27:37;60.33;;;29.02;;
69979;SDS011;57318;56.232;43.944;2022-08-19T05:30:03;54.08;;;29.55;;
69979;SDS011;57318;56.232;43.944;2022-08-19T05:32:29;57.33;;;29.58;;
69979;SDS011;57318;56.232;43.944;2022-08-19T05:34:56;55.58;;;30.92;;
69979;SDS011;57318;56.232;43.944;2022-08-19T05:37:21;57.00;;;28.70;;
69979;SDS011;57318;56.232;43.944;2022-08-19T05:39:47;56.80;;;27.20;;
69979;SDS011;57318;56.232;43.944;2022-08-19T05:42:14;53.20;;;29.00;;
69979;SDS011;57318;56.232;43.944;2022-08-19T05:44:41;63.53;;;29.92;;
69979;SDS011;57318;56.232;43.944;2022-08-19T05:47:09;47.03;;;25.30;;
69979;SDS011;57318;56.232;43.944;2022-08-19T05:49:37;52.85;;;26.08;;
69979;SDS011;57318;56.232;43.944;2022-08-19T05:52:04;45.25;;;23.70;;
69979;SDS011;57318;56.232;43.944;2022-08-19T05:54:31;44.35;;;23.88;;
69979;SDS011;57318;56.232;43.944;2022-08-19T05:56:58;48.65;;;24.55;;
69979;SDS011;57318;56.232;43.944;2022-08-19T05:59:25;47.47;;;22.98;;
69979;SDS011;57318;56.232;43.944;2022-08-19T06:01:51;43.00;;;23.33;;
69979;SDS011;57318;56.232;43.944;2022-08-19T06:04:22;46.25;;;22.77;;
69979;SDS011;57318;56.232;43.944;2022-08-19T06:06:50;38.55;;;20.60;;
69979;SDS011;57318;56.232;43.944;2022-08-19T06:09:17;30.85;;;16.35;;
69979;SDS011;57318;56.232;43.944;2022-08-19T06:11:45;35.15;;;17.58;;
69979;SDS011;57318;56.232;43.944;2022-08-19T06:14:19;33.67;;;16.83;;
69979;SDS011;57318;56.232;43.944;2022-08-19T06:16:48;31.67;;;16.48;;
69979;SDS011;57318;56.232;43.944;2022-08-19T06:19:17;33.15;;;17.48;;
69979;SDS011;57318;56.232;43.944;2022-08-19T06:21:45;43.78;;;18.02;;
69979;SDS011;57318;56.232;43.944;2022-08-19T06:24:13;37.60;;;17.13;;
69979;SDS011;57318;56.232;43.944;2022-08-19T06:26:42;26.90;;;15.48;;
69979;SDS011;57318;56.232;43.944;2022-08-19T06:29:10;29.33;;;15.15;;
69979;SDS011;57318;56.232;43.944;2022-08-19T06:31:40;24.40;;;13.77;;
69979;SDS011;57318;56.232;43.944;2022-08-19T06:34:07;25.25;;;13.07;;
69979;SDS011;57318;56.232;43.944;2022-08-19T06:36:44;25.25;;;13.60;;
69979;SDS011;57318;56.232;43.944;2022-08-19T06:39:15;26.65;;;11.82;;
69979;SDS011;57318;56.232;43.944;2022-08-19T06:41:47;21.08;;;11.27;;
69979;SDS011;57318;56.232;43.944;2022-08-19T06:44:15;20.20;;;11.00;;
69979;SDS011;57318;56.232;43.944;2022-08-19T06:46:41;19.13;;;10.65;;
69979;SDS011;57318;56.232;43.944;2022-08-19T06:51:40;18.63;;;9.55;;
69979;SDS011;57318;56.232;43.944;2022-08-19T06:54:09;18.92;;;9.68;;
69979;SDS011;57318;56.232;43.944;2022-08-19T06:56:36;11.88;;;7.80;;
69979;SDS011;57318;56.232;43.944;2022-08-19T06:59:07;10.45;;;6.88;;
69979;SDS011;57318;56.232;43.944;2022-08-19T07:01:38;10.65;;;6.57;;
69979;SDS011;57318;56.232;43.944;2022-08-19T07:04:11;7.00;;;5.05;;
69979;SDS011;57318;56.232;43.944;2022-08-19T07:06:37;16.50;;;5.25;;
69979;SDS011;57318;56.232;43.944;2022-08-19T07:09:07;11.15;;;4.78;;
69979;SDS011;57318;56.232;43.944;2022-08-19T07:11:36;10.77;;;4.35;;
69979;SDS011;57318;56.232;43.944;2022-08-19T07:14:02;9.00;;;4.93;;
69979;SDS011;57318;56.232;43.944;2022-08-19T07:16:28;9.95;;;4.30;;
69979;SDS011;57318;56.232;43.944;2022-08-19T07:18:55;9.38;;;4.28;;
69979;SDS011;57318;56.232;43.944;2022-08-19T07:21:23;13.45;;;3.70;;
69979;SDS011;57318;56.232;43.944;2022-08-19T07:23:54;8.45;;;3.55;;
69979;SDS011;57318;56.232;43.944;2022-08-19T07:28:53;9.07;;;4.40;;
69979;SDS011;57318;56.232;43.944;2022-08-19T07:31:20;7.50;;;3.22;;
69979;SDS011;57318;56.232;43.944;2022-08-19T07:33:47;10.02;;;3.58;;
69979;SDS011;57318;56.232;43.944;2022-08-19T07:36:16;9.98;;;3.30;;
69979;SDS011;57318;56.232;43.944;2022-08-19T07:38:44;9.45;;;3.30;;
69979;SDS011;57318;56.232;43.944;2022-08-19T07:41:14;10.57;;;3.15;;
69979;SDS011;57318;56.232;43.944;2022-08-19T07:43:43;7.20;;;2.95;;
69979;SDS011;57318;56.232;43.944;2022-08-19T07:46:11;12.52;;;3.70;;
69979;SDS011;57318;56.232;43.944;2022-08-19T07:48:38;12.73;;;3.17;;
69979;SDS011;57318;56.232;43.944;2022-08-19T07:51:07;12.00;;;3.90;;
69979;SDS011;57318;56.232;43.944;2022-08-19T07:53:34;9.57;;;3.13;;
69979;SDS011;57318;56.232;43.944;2022-08-19T07:56:01;8.77;;;3.83;;
69979;SDS011;57318;56.232;43.944;2022-08-19T07:58:32;3.22;;;2.75;;
69979;SDS011;57318;56.232;43.944;2022-08-19T08:00:59;9.90;;;3.28;;
69979;SDS011;57318;56.232;43.944;2022-08-19T08:03:27;5.35;;;2.50;;
69979;SDS011;57318;56.232;43.944;2022-08-19T08:06:26;7.78;;;3.40;;
69979;SDS011;57318;56.232;43.944;2022-08-19T08:09:10;8.57;;;3.85;;
69979;SDS011;57318;56.232;43.944;2022-08-19T08:11:40;7.38;;;2.80;;
69979;SDS011;57318;56.232;43.944;2022-08-19T08:14:19;7.88;;;3.10;;
69979;SDS011;57318;56.232;43.944;2022-08-19T08:16:48;7.65;;;2.90;;
69979;SDS011;57318;56.232;43.944;2022-08-19T08:19:15;9.10;;;3.50;;
69979;SDS011;57318;56.232;43.944;2022-08-19T08:21:41;12.07;;;3.85;;
69979;SDS011;57318;56.232;43.944;2022-08-19T08:24:07;11.40;;;2.67;;
69979;SDS011;57318;56.232;43.944;2022-08-19T08:26:33;5.10;;;2.80;;
69979;SDS011;57318;56.232;43.944;2022-08-19T08:28:59;6.18;;;2.63;;
69979;SDS011;57318;56.232;43.944;2022-08-19T08:31:25;8.25;;;2.47;;
69979;SDS011;57318;56.232;43.944;2022-08-19T08:33:50;9.32;;;2.60;;
69979;SDS011;57318;56.232;43.944;2022-08-19T08:36:16;4.85;;;2.50;;
69979;SDS011;57318;56.232;43.944;2022-08-19T08:38:43;6.55;;;2.40;;
69979;SDS011;57318;56.232;43.944;2022-08-19T08:41:31;4.40;;;2.50;;
69979;SDS011;57318;56.232;43.944;2022-08-19T08:44:06;7.35;;;2.55;;
69979;SDS011;57318;56.232;43.944;2022-08-19T08:46:41;8.23;;;2.70;;
69979;SDS011;57318;56.232;43.944;2022-08-19T08:49:40;8.70;;;2.35;;
69979;SDS011;57318;56.232;43.944;2022-08-19T08:52:18;4.93;;;2.05;;
69979;SDS011;57318;56.232;43.944;2022-08-19T08:54:46;4.93;;;2.40;;
69979;SDS011;57318;56.232;43.944;2022-08-19T08:57:14;6.60;;;2.80;;
69979;SDS011;57318;56.232;43.944;2022-08-19T08:59:45;7.47;;;2.78;;
69979;SDS011;57318;56.232;43.944;2022-08-19T09:02:17;8.63;;;2.60;;
69979;SDS011;57318;56.232;43.944;2022-08-19T09:04:43;10.88;;;3.10;;
69979;SDS011;57318;56.232;43.944;2022-08-19T09:10:09;6.07;;;2.63;;
69979;SDS011;57318;56.232;43.944;2022-08-19T09:12:54;8.63;;;2.50;;
69979;SDS011;57318;56.232;43.944;2022-08-19T09:15:48;2.78;;;2.40;;
69979;SDS011;57318;56.232;43.944;2022-08-19T09:18:37;6.07;;;2.35;;
69979;SDS011;57318;56.232;43.944;2022-08-19T09:21:06;5.18;;;2.35;;
69979;SDS011;57318;56.232;43.944;2022-08-19T09:23:34;7.70;;;2.40;;
69979;SDS011;57318;56.232;43.944;2022-08-19T09:26:24;6.50;;;2.40;;
69979;SDS011;57318;56.232;43.944;2022-08-19T09:28:49;5.15;;;2.30;;
69979;SDS011;57318;56.232;43.944;2022-08-19T09:31:22;12.55;;;3.00;;
69979;SDS011;57318;56.232;43.944;2022-08-19T09:33:50;4.65;;;2.50;;
69979;SDS011;57318;56.232;43.944;2022-08-19T09:36:17;8.88;;;2.35;;
69979;SDS011;57318;56.232;43.944;2022-08-19T09:38:44;5.85;;;2.60;;
69979;SDS011;57318;56.232;43.944;2022-08-19T09:41:15;10.18;;;2.35;;
69979;SDS011;57318;56.232;43.944;2022-08-19T09:43:43;6.28;;;2.30;;
69979;SDS011;57318;56.232;43.944;2022-08-19T09:46:12;4.47;;;2.50;;
69979;SDS011;57318;56.232;43.944;2022-08-19T09:48:38;7.78;;;2.50;;
69979;SDS011;57318;56.232;43.944;2022-08-19T09:51:06;5.50;;;2.35;;
69979;SDS011;57318;56.232;43.944;2022-08-19T09:53:34;6.70;;;2.40;;
69979;SDS011;57318;56.232;43.944;2022-08-19T09:56:01;2.55;;;1.90;;
69979;SDS011;57318;56.232;43.944;2022-08-19T09:58:28;9.10;;;2.50;;
69979;SDS011;57318;56.232;43.944;2022-08-19T10:00:55;13.20;;;2.83;;
69979;SDS011;57318;56.232;43.944;2022-08-19T10:03:22;16.52;;;2.92;;
69979;SDS011;57318;56.232;43.944;2022-08-19T10:05:48;5.45;;;2.20;;
69979;SDS011;57318;56.232;43.944;2022-08-19T10:08:15;13.00;;;2.42;;
69979;SDS011;57318;56.232;43.944;2022-08-19T10:10:42;5.88;;;2.10;;
69979;SDS011;57318;56.232;43.944;2022-08-19T10:13:09;6.40;;;2.17;;
69979;SDS011;57318;56.232;43.944;2022-08-19T10:15:36;4.80;;;1.98;;
69979;SDS011;57318;56.232;43.944;2022-08-19T10:18:04;4.80;;;2.00;;
69979;SDS011;57318;56.232;43.944;2022-08-19T10:20:30;10.52;;;2.35;;
69979;SDS011;57318;56.232;43.944;2022-08-19T10:22:56;3.90;;;2.00;;
69979;SDS011;57318;56.232;43.944;2022-08-19T10:25:24;7.78;;;2.50;;
69979;SDS011;57318;56.232;43.944;2022-08-19T10:27:52;7.53;;;1.98;;
69979;SDS011;57318;56.232;43.944;2022-08-19T10:30:18;12.70;;;2.70;;
69979;SDS011;57318;56.232;43.944;2022-08-19T10:32:44;17.25;;;3.33;;
69979;SDS011;57318;56.232;43.944;2022-08-19T10:35:11;4.97;;;2.10;;
69979;SDS011;57318;56.232;43.944;2022-08-19T10:37:38;6.07;;;2.00;;
69979;SDS011;57318;56.232;43.944;2022-08-19T10:40:07;7.40;;;2.20;;
69979;SDS011;57318;56.232;43.944;2022-08-19T10:42:35;7.18;;;1.98;;
69979;SDS011;57318;56.232;43.944;2022-08-19T10:45:02;10.55;;;3.10;;
69979;SDS011;57318;56.232;43.944;2022-08-19T10:47:31;10.45;;;2.28;;
69979;SDS011;57318;56.232;43.944;2022-08-19T10:49:57;4.22;;;2.45;;
69979;SDS011;57318;56.232;43.944;2022-08-19T10:52:45;14.90;;;2.67;;
69979;SDS011;57318;56.232;43.944;2022-08-19T10:55:13;9.10;;;2.42;;
69979;SDS011;57318;56.232;43.944;2022-08-19T10:57:56;8.68;;;1.60;;
69979;SDS011;57318;56.232;43.944;2022-08-19T11:00:23;6.70;;;1.80;;
69979;SDS011;57318;56.232;43.944;2022-08-19T11:02:50;8.15;;;2.10;;
69979;SDS011;57318;56.232;43.944;2022-08-19T11:05:16;10.35;;;2.03;;
69979;SDS011;57318;56.232;43.944;2022-08-19T11:07:42;8.43;;;1.95;;
69979;SDS011;57318;56.232;43.944;2022-08-19T11:10:10;8.27;;;2.38;;
69979;SDS011;57318;56.232;43.944;2022-08-19T11:12:38;11.88;;;2.05;;
69979;SDS011;57318;56.232;43.944;2022-08-19T11:15:06;8.93;;;2.15;;
69979;SDS011;57318;56.232;43.944;2022-08-19T11:17:38;6.20;;;2.10;;
69979;SDS011;57318;56.232;43.944;2022-08-19T11:20:09;9.23;;;2.20;;
69979;SDS011;57318;56.232;43.944;2022-08-19T11:22:37;8.20;;;2.00;;
69979;SDS011;57318;56.232;43.944;2022-08-19T11:25:04;6.88;;;2.53;;
69979;SDS011;57318;56.232;43.944;2022-08-19T11:27:30;9.95;;;2.35;;
69979;SDS011;57318;56.232;43.944;2022-08-19T11:29:56;10.75;;;2.28;;
69979;SDS011;57318;56.232;43.944;2022-08-19T11:32:21;17.92;;;2.67;;
69979;SDS011;57318;56.232;43.944;2022-08-19T11:34:47;7.18;;;2.47;;
69979;SDS011;57318;56.232;43.944;2022-08-19T11:37:13;2.65;;;1.92;;
69979;SDS011;57318;56.232;43.944;2022-08-19T11:39:38;8.18;;;1.90;;
69979;SDS011;57318;56.232;43.944;2022-08-19T11:42:05;8.02;;;2.50;;
69979;SDS011;57318;56.232;43.944;2022-08-19T11:44:51;6.82;;;2.05;;
69979;SDS011;57318;56.232;43.944;2022-08-19T11:47:17;7.93;;;2.05;;
69979;SDS011;57318;56.232;43.944;2022-08-19T11:49:43;10.32;;;2.30;;
69979;SDS011;57318;56.232;43.944;2022-08-19T11:52:09;8.45;;;2.13;;
69979;SDS011;57318;56.232;43.944;2022-08-19T11:54:36;7.82;;;2.05;;
69979;SDS011;57318;56.232;43.944;2022-08-19T11:57:02;4.18;;;2.05;;
69979;SDS011;57318;56.232;43.944;2022-08-19T11:59:28;10.07;;;2.20;;
69979;SDS011;57318;56.232;43.944;2022-08-19T12:01:54;12.82;;;2.10;;
69979;SDS011;57318;56.232;43.944;2022-08-19T12:04:21;15.48;;;2.63;;
69979;SDS011;57318;56.232;43.944;2022-08-19T12:06:47;9.80;;;2.45;;
69979;SDS011;57318;56.232;43.944;2022-08-19T12:09:13;6.60;;;2.60;;
69979;SDS011;57318;56.232;43.944;2022-08-19T12:11:40;7.78;;;2.22;;
69979;SDS011;57318;56.232;43.944;2022-08-19T12:14:06;10.98;;;2.40;;
69979;SDS011;57318;56.232;43.944;2022-08-19T12:16:35;11.07;;;2.58;;
69979;SDS011;57318;56.232;43.944;2022-08-19T12:19:01;8.70;;;2.20;;
69979;SDS011;57318;56.232;43.944;2022-08-19T12:21:29;11.77;;;2.15;;
69979;SDS011;57318;56.232;43.944;2022-08-19T12:23:57;9.75;;;2.53;;
69979;SDS011;57318;56.232;43.944;2022-08-19T12:26:26;8.85;;;2.28;;
69979;SDS011;57318;56.232;43.944;2022-08-19T12:28:53;6.38;;;2.45;;
69979;SDS011;57318;56.232;43.944;2022-08-19T12:31:19;3.85;;;2.10;;
69979;SDS011;57318;56.232;43.944;2022-08-19T12:33:45;6.55;;;2.35;;
69979;SDS011;57318;56.232;43.944;2022-08-19T12:36:12;6.13;;;2.33;;
69979;SDS011;57318;56.232;43.944;2022-08-19T12:38:40;6.65;;;2.20;;
69979;SDS011;57318;56.232;43.944;2022-08-19T12:41:08;7.40;;;2.50;;
69979;SDS011;57318;56.232;43.944;2022-08-19T12:43:36;7.95;;;2.50;;
69979;SDS011;57318;56.232;43.944;2022-08-19T12:46:05;8.65;;;2.30;;
69979;SDS011;57318;56.232;43.944;2022-08-19T12:48:32;8.68;;;2.28;;
69979;SDS011;57318;56.232;43.944;2022-08-19T12:50:58;7.97;;;2.60;;
69979;SDS011;57318;56.232;43.944;2022-08-19T12:53:24;7.90;;;2.55;;
69979;SDS011;57318;56.232;43.944;2022-08-19T12:55:56;7.45;;;2.05;;
69979;SDS011;57318;56.232;43.944;2022-08-19T12:58:25;9.65;;;3.03;;
69979;SDS011;57318;56.232;43.944;2022-08-19T13:00:51;10.02;;;2.30;;
69979;SDS011;57318;56.232;43.944;2022-08-19T13:03:17;8.55;;;2.47;;
69979;SDS011;57318;56.232;43.944;2022-08-19T13:05:43;8.30;;;2.40;;
69979;SDS011;57318;56.232;43.944;2022-08-19T13:08:09;6.38;;;2.38;;
69979;SDS011;57318;56.232;43.944;2022-08-19T13:10:35;7.32;;;2.78;;
69979;SDS011;57318;56.232;43.944;2022-08-19T13:13:05;12.18;;;2.65;;
69979;SDS011;57318;56.232;43.944;2022-08-19T13:15:36;6.30;;;2.60;;
69979;SDS011;57318;56.232;43.944;2022-08-19T13:18:05;9.02;;;2.80;;
69979;SDS011;57318;56.232;43.944;2022-08-19T13:20:34;7.15;;;2.25;;
69979;SDS011;57318;56.232;43.944;2022-08-19T13:23:00;14.60;;;2.70;;
69979;SDS011;57318;56.232;43.944;2022-08-19T13:25:26;6.18;;;2.33;;
69979;SDS011;57318;56.232;43.944;2022-08-19T13:27:52;7.70;;;2.30;;
69979;SDS011;57318;56.232;43.944;2022-08-19T13:30:18;10.65;;;2.70;;
69979;SDS011;57318;56.232;43.944;2022-08-19T13:33:04;6.28;;;2.20;;
69979;SDS011;57318;56.232;43.944;2022-08-19T13:35:46;5.43;;;2.40;;
69979;SDS011;57318;56.232;43.944;2022-08-19T13:38:15;7.10;;;2.88;;
69979;SDS011;57318;56.232;43.944;2022-08-19T13:40:42;10.80;;;3.00;;
69979;SDS011;57318;56.232;43.944;2022-08-19T13:43:08;5.63;;;2.45;;
69979;SDS011;57318;56.232;43.944;2022-08-19T13:45:34;9.77;;;2.60;;
69979;SDS011;57318;56.232;43.944;2022-08-19T13:48:01;6.70;;;2.70;;
69979;SDS011;57318;56.232;43.944;2022-08-19T13:50:31;6.93;;;2.88;;
69979;SDS011;57318;56.232;43.944;2022-08-19T13:52:58;8.23;;;2.53;;
69979;SDS011;57318;56.232;43.944;2022-08-19T13:55:25;7.43;;;2.70;;
69979;SDS011;57318;56.232;43.944;2022-08-19T13:57:55;9.52;;;2.35;;
69979;SDS011;57318;56.232;43.944;2022-08-19T14:00:23;11.95;;;2.38;;
69979;SDS011;57318;56.232;43.944;2022-08-19T14:02:52;11.60;;;3.30;;
69979;SDS011;57318;56.232;43.944;2022-08-19T14:05:20;9.40;;;3.40;;
69979;SDS011;57318;56.232;43.944;2022-08-19T14:07:46;11.07;;;3.00;;
69979;SDS011;57318;56.232;43.944;2022-08-19T14:10:13;7.15;;;2.63;;
69979;SDS011;57318;56.232;43.944;2022-08-19T14:12:39;3.80;;;2.70;;
69979;SDS011;57318;56.232;43.944;2022-08-19T14:15:06;8.80;;;3.15;;
69979;SDS011;57318;56.232;43.944;2022-08-19T14:17:33;11.30;;;2.85;;
69979;SDS011;57318;56.232;43.944;2022-08-19T14:20:02;10.48;;;2.58;;
69979;SDS011;57318;56.232;43.944;2022-08-19T14:22:33;12.50;;;2.60;;
69979;SDS011;57318;56.232;43.944;2022-08-19T14:25:04;8.05;;;2.78;;
69979;SDS011;57318;56.232;43.944;2022-08-19T14:27:37;6.22;;;2.65;;
69979;SDS011;57318;56.232;43.944;2022-08-19T14:30:05;11.73;;;2.60;;
69979;SDS011;57318;56.232;43.944;2022-08-19T14:32:33;10.55;;;2.67;;
69979;SDS011;57318;56.232;43.944;2022-08-19T14:34:59;7.28;;;2.50;;
69979;SDS011;57318;56.232;43.944;2022-08-19T14:37:26;7.68;;;3.00;;
69979;SDS011;57318;56.232;43.944;2022-08-19T14:39:51;13.50;;;3.45;;
69979;SDS011;57318;56.232;43.944;2022-08-19T14:42:18;8.63;;;2.78;;